createdAt,value
2022-08-17T00:00:01.374Z,88.07
2022-08-17T00:05:12.041Z,88.00
2022-08-17T00:10:18.912Z,87.97
2022-08-17T00:15:21.671Z,87.60
2022-08-17T00:20:30.616Z,87.29
2022-08-17T00:25:37.342Z,86.81
2022-08-17T00:30:51.246Z,86.75
2022-08-17T00:35:59.036Z,87.07
2022-08-17T00:41:05.434Z,87.02
2022-08-17T00:46:10.858Z,87.83
2022-08-17T00:51:22.563Z,88.17
2022-08-17T00:56:42.711Z,87.60
2022-08-17T01:01:46.457Z,87.61
2022-08-17T01:06:51.229Z,87.55
2022-08-17T01:12:02.460Z,88.35
2022-08-17T01:17:05.424Z,88.77
2022-08-17T01:22:16.563Z,89.34
2022-08-17T01:27:21.462Z,88.96
2022-08-17T01:32:33.830Z,90.92
2022-08-17T01:37:39.590Z,90.93
2022-08-17T01:42:57.392Z,89.22
2022-08-17T01:48:00.271Z,89.77
2022-08-17T01:53:04.637Z,90.55
2022-08-17T01:58:10.093Z,90.96
2022-08-17T02:03:14.597Z,91.72
2022-08-17T02:08:20.380Z,91.59
2022-08-17T02:13:24.539Z,91.53
2022-08-17T02:18:26.929Z,91.10
2022-08-17T02:23:30.840Z,91.80
2022-08-17T02:28:34.941Z,91.61
2022-08-17T02:33:43.795Z,91.46
2022-08-17T02:38:47.992Z,91.96
2022-08-17T02:43:49.840Z,91.41
2022-08-17T02:48:53.950Z,90.59
2022-08-17T02:54:03.875Z,92.40
2022-08-17T02:59:21.167Z,92.32
2022-08-17T03:04:25.512Z,92.66
2022-08-17T03:09:27.291Z,92.33
2022-08-17T03:14:32.233Z,92.66
2022-08-17T03:19:41.544Z,93.30
2022-08-17T03:24:47.295Z,92.79
2022-08-17T03:29:52.877Z,94.00
2022-08-17T03:35:00.286Z,93.48
2022-08-17T03:40:03.917Z,93.28
2022-08-17T03:45:10.673Z,94.70
2022-08-17T03:50:32.732Z,94.24
2022-08-17T03:55:56.316Z,94.94
2022-08-17T04:00:58.147Z,95.25
2022-08-17T04:06:02.487Z,96.11
2022-08-17T04:11:06.362Z,95.83
2022-08-17T04:16:08.340Z,97.76
2022-08-17T04:21:14.844Z,98.24
2022-08-17T04:26:52.941Z,98.38
2022-08-17T04:31:40.707Z,98.48
2022-08-17T04:36:42.435Z,97.75
2022-08-17T04:42:16.956Z,99.95
2022-08-17T04:47:19.254Z,100.00
2022-08-17T04:52:29.858Z,100.00
2022-08-17T04:57:45.086Z,100.00
2022-08-17T05:02:50.924Z,100.00
2022-08-17T05:07:56.437Z,100.00
2022-08-17T05:13:02.595Z,100.00
2022-08-17T05:18:08.693Z,100.00
2022-08-17T05:23:19.943Z,100.00
2022-08-17T05:28:27.413Z,100.00
2022-08-17T05:33:44.327Z,100.00
2022-08-17T05:38:50.660Z,100.00
2022-08-17T05:43:56.485Z,100.00
2022-08-17T05:49:08.089Z,100.00
2022-08-17T05:54:34.822Z,100.00
2022-08-17T05:59:58.143Z,100.00
2022-08-17T06:05:35.017Z,100.00
2022-08-17T06:11:16.961Z,100.00
2022-08-17T06:16:33.656Z,100.00
2022-08-17T06:21:42.529Z,100.00
2022-08-17T06:26:47.545Z,100.00
2022-08-17T06:31:52.071Z,100.00
2022-08-17T06:37:06.504Z,100.00
2022-08-17T06:42:55.125Z,100.00
2022-08-17T06:47:52.649Z,100.00
2022-08-17T06:52:58.491Z,100.00
2022-08-17T06:58:15.977Z,100.00
2022-08-17T07:03:37.735Z,100.00
2022-08-17T07:09:01.236Z,100.00
2022-08-17T07:14:17.454Z,100.00
2022-08-17T07:19:24.908Z,100.00
2022-08-17T07:24:47.331Z,100.00
2022-08-17T07:30:10.252Z,100.00
2022-08-17T07:35:21.120Z,99.47
2022-08-17T07:40:49.960Z,99.33
2022-08-17T07:46:22.294Z,97.66
2022-08-17T07:51:36.508Z,95.39
2022-08-17T07:56:42.648Z,95.09
2022-08-17T08:01:57.476Z,94.60
2022-08-17T08:07:11.532Z,93.50
2022-08-17T08:12:23.090Z,90.69
2022-08-17T08:17:36.594Z,88.46
2022-08-17T08:23:00.605Z,86.68
2022-08-17T08:28:13.476Z,86.60
2022-08-17T08:33:45.122Z,86.01
2022-08-17T08:38:56.701Z,84.37
2022-08-17T08:44:18.911Z,83.85
2022-08-17T08:50:02.006Z,82.48
2022-08-17T08:55:16.763Z,84.02
2022-08-17T09:00:20.153Z,83.39
2022-08-17T09:05:54.175Z,81.54
2022-08-17T09:11:06.488Z,79.82
2022-08-17T09:16:23.150Z,79.34
2022-08-17T09:21:48.440Z,78.30
2022-08-17T09:26:59.664Z,78.29
2022-08-17T09:32:10.016Z,79.18
2022-08-17T09:37:24.803Z,79.94
2022-08-17T09:42:31.231Z,78.76
2022-08-17T09:47:48.369Z,79.95
2022-08-17T09:52:58.337Z,83.68
2022-08-17T09:58:21.282Z,85.68
2022-08-17T10:03:34.296Z,85.87
2022-08-17T10:08:54.186Z,85.64
2022-08-17T10:14:36.885Z,85.89
2022-08-17T10:19:39.513Z,85.95
2022-08-17T10:25:22.366Z,85.55
2022-08-17T10:30:31.129Z,85.99
2022-08-17T10:35:42.160Z,86.80
2022-08-17T10:41:05.940Z,86.63
2022-08-17T10:46:35.455Z,85.40
2022-08-17T10:51:39.689Z,82.45
2022-08-17T10:56:45.040Z,81.12
2022-08-17T11:01:58.828Z,79.64
2022-08-17T11:07:33.008Z,79.33
2022-08-17T11:13:01.235Z,78.25
2022-08-17T11:18:05.990Z,79.51
2022-08-17T11:23:10.735Z,78.92
2022-08-17T11:28:48.718Z,78.53
2022-08-17T11:34:00.191Z,78.49
2022-08-17T11:39:15.648Z,79.24
2022-08-17T11:44:51.709Z,79.54
2022-08-17T11:50:36.805Z,79.13
2022-08-17T11:55:41.907Z,78.88
2022-08-17T12:00:49.225Z,78.31
2022-08-17T12:06:00.284Z,77.22
2022-08-17T12:11:18.977Z,77.48
2022-08-17T12:16:44.328Z,77.71
2022-08-17T12:21:54.540Z,77.80
2022-08-17T12:27:04.520Z,78.81
2022-08-17T12:32:09.766Z,79.55
2022-08-17T12:37:23.335Z,79.63
2022-08-17T12:42:29.451Z,79.49
2022-08-17T12:47:37.128Z,77.09
2022-08-17T12:52:45.785Z,74.89
2022-08-17T12:57:48.542Z,72.88
2022-08-17T13:03:09.662Z,73.66
2022-08-17T13:08:27.200Z,70.96
2022-08-17T13:13:31.895Z,69.39
2022-08-17T13:18:44.937Z,68.53
2022-08-17T13:24:00.632Z,69.55
2022-08-17T13:29:25.073Z,70.83
2022-08-17T13:34:31.372Z,71.09
2022-08-17T13:39:43.499Z,71.25
2022-08-17T13:44:46.962Z,69.58
2022-08-17T13:49:51.469Z,64.94
2022-08-17T13:55:01.061Z,61.89
2022-08-17T14:00:13.221Z,60.01
2022-08-17T14:05:15.018Z,59.49
2022-08-17T14:10:20.762Z,60.02
2022-08-17T14:15:24.698Z,60.47
2022-08-17T14:20:49.504Z,59.29
2022-08-17T14:25:53.445Z,58.43
2022-08-17T14:31:03.406Z,58.26
2022-08-17T14:36:05.221Z,58.62
2022-08-17T14:41:09.291Z,60.19
2022-08-17T14:46:12.392Z,62.47
2022-08-17T14:51:14.576Z,65.46
2022-08-17T14:56:19.945Z,65.95
2022-08-17T15:01:22.312Z,66.17
2022-08-17T15:06:24.885Z,67.09
2022-08-17T15:11:29.706Z,68.52
2022-08-17T15:16:36.013Z,73.39
2022-08-17T15:21:41.593Z,74.24
2022-08-17T15:26:44.477Z,75.85
2022-08-17T15:31:48.814Z,77.48
2022-08-17T15:36:50.700Z,78.01
2022-08-17T15:41:58.577Z,79.24
2022-08-17T15:47:01.228Z,80.53
2022-08-17T15:52:24.191Z,81.57
2022-08-17T15:57:33.947Z,82.87
2022-08-17T16:03:44.835Z,84.64
2022-08-17T16:08:02.296Z,84.10
2022-08-17T16:13:04.605Z,85.02
2022-08-17T16:18:13.173Z,85.49
2022-08-17T16:23:21.831Z,86.44
2022-08-17T16:28:29.865Z,87.04
2022-08-17T16:33:39.498Z,83.55
2022-08-17T16:38:41.286Z,81.54
2022-08-17T16:43:45.621Z,87.80
2022-08-17T16:48:49.623Z,89.09
2022-08-17T16:53:57.796Z,90.47
2022-08-17T16:59:21.136Z,93.08
2022-08-17T17:04:35.192Z,95.40
2022-08-17T17:09:46.469Z,98.61
2022-08-17T17:14:59.257Z,95.80
2022-08-17T17:20:17.757Z,96.42
2022-08-17T17:25:30.477Z,96.83
2022-08-17T17:30:42.612Z,96.44
2022-08-17T17:35:53.429Z,97.68
2022-08-17T17:41:03.015Z,98.61
2022-08-17T17:46:28.109Z,99.08
2022-08-17T17:52:09.111Z,99.70
2022-08-17T17:57:12.544Z,100.00
2022-08-17T18:02:51.423Z,100.00
2022-08-17T18:08:19.895Z,100.00
2022-08-17T18:13:54.254Z,98.45
2022-08-17T18:18:57.775Z,94.63
2022-08-17T18:24:05.466Z,96.55
2022-08-17T18:29:15.817Z,96.94
2022-08-17T18:34:46.473Z,96.20
2022-08-17T18:39:51.390Z,97.38
2022-08-17T18:44:55.351Z,99.01
2022-08-17T18:50:23.065Z,99.85
2022-08-17T18:55:31.420Z,100.00
2022-08-17T19:00:38.184Z,100.00
2022-08-17T19:05:44.406Z,100.00
2022-08-17T19:10:49.329Z,100.00
2022-08-17T19:16:13.841Z,100.00
2022-08-17T19:21:20.558Z,100.00
2022-08-17T19:26:55.209Z,100.00
2022-08-17T19:31:55.324Z,100.00
2022-08-17T19:37:09.081Z,100.00
2022-08-17T19:42:20.108Z,100.00
2022-08-17T19:47:55.414Z,100.00
2022-08-17T19:53:23.366Z,100.00
2022-08-17T19:58:33.800Z,100.00
2022-08-17T20:04:00.525Z,100.00
2022-08-17T20:09:14.998Z,100.00
2022-08-17T20:14:38.228Z,100.00
2022-08-17T20:19:51.901Z,100.00
2022-08-17T20:24:55.065Z,100.00
2022-08-17T20:30:10.339Z,100.00
2022-08-17T20:35:17.250Z,100.00
2022-08-17T20:40:23.291Z,100.00
2022-08-17T20:45:27.307Z,100.00
2022-08-17T20:50:37.940Z,100.00
2022-08-17T20:55:51.937Z,100.00
2022-08-17T21:00:57.376Z,100.00
2022-08-17T21:06:16.848Z,100.00
2022-08-17T21:11:58.202Z,100.00
2022-08-17T21:17:17.543Z,100.00
2022-08-17T21:22:38.134Z,100.00
2022-08-17T21:28:02.582Z,100.00
2022-08-17T21:33:31.871Z,100.00
2022-08-17T21:38:42.896Z,100.00
2022-08-17T21:43:48.295Z,100.00
2022-08-17T21:48:54.457Z,100.00
2022-08-17T21:54:04.178Z,100.00
2022-08-17T21:59:13.250Z,100.00
2022-08-17T22:04:14.953Z,100.00
2022-08-17T22:09:34.069Z,100.00
2022-08-17T22:14:53.044Z,100.00
2022-08-17T22:20:01.471Z,100.00
2022-08-17T22:25:08.575Z,100.00
2022-08-17T22:30:31.414Z,100.00
2022-08-17T22:35:36.578Z,100.00
2022-08-17T22:40:41.377Z,100.00
2022-08-17T22:45:53.421Z,100.00
2022-08-17T22:51:12.774Z,100.00
2022-08-17T22:56:40.999Z,100.00
2022-08-17T23:01:45.481Z,100.00
2022-08-17T23:06:50.075Z,100.00
2022-08-17T23:11:59.460Z,100.00
2022-08-17T23:17:04.082Z,100.00
2022-08-17T23:22:08.710Z,100.00
2022-08-17T23:27:15.938Z,100.00
2022-08-17T23:32:22.235Z,100.00
2022-08-17T23:37:27.119Z,100.00
2022-08-17T23:42:31.692Z,100.00
2022-08-17T23:47:33.460Z,100.00
2022-08-17T23:52:41.210Z,100.00
2022-08-17T23:57:45.200Z,100.00
